sensor_id;sensor_type;location;lat;lon;timestamp;P1;durP1;ratioP1;P2;durP2;ratioP2
22752;SDS011;11543;43.144;24.684;2023-06-10T00:01:32;7.03;;;3.35;;
22752;SDS011;11543;43.144;24.684;2023-06-10T00:03:59;6.28;;;3.30;;
22752;SDS011;11543;43.144;24.684;2023-06-10T00:06:24;6.32;;;3.47;;
22752;SDS011;11543;43.144;24.684;2023-06-10T00:08:50;5.30;;;3.15;;
22752;SDS011;11543;43.144;24.684;2023-06-10T00:11:16;9.18;;;3.75;;
22752;SDS011;11543;43.144;24.684;2023-06-10T00:13:42;7.65;;;3.70;;
22752;SDS011;11543;43.144;24.684;2023-06-10T00:16:07;6.75;;;3.50;;
22752;SDS011;11543;43.144;24.684;2023-06-10T00:18:33;6.30;;;3.35;;
22752;SDS011;11543;43.144;24.684;2023-06-10T00:21:02;5.75;;;3.58;;
22752;SDS011;11543;43.144;24.684;2023-06-10T00:23:29;5.07;;;3.35;;
22752;SDS011;11543;43.144;24.684;2023-06-10T00:26:02;4.25;;;2.95;;
22752;SDS011;11543;43.144;24.684;2023-06-10T00:28:28;5.38;;;3.17;;
22752;SDS011;11543;43.144;24.684;2023-06-10T00:30:53;5.50;;;2.78;;
22752;SDS011;11543;43.144;24.684;2023-06-10T00:33:19;4.07;;;2.85;;
22752;SDS011;11543;43.144;24.684;2023-06-10T00:35:44;7.00;;;3.08;;
22752;SDS011;11543;43.144;24.684;2023-06-10T00:38:10;8.82;;;3.10;;
22752;SDS011;11543;43.144;24.684;2023-06-10T00:40:39;6.20;;;3.40;;
22752;SDS011;11543;43.144;24.684;2023-06-10T00:43:06;6.68;;;3.10;;
22752;SDS011;11543;43.144;24.684;2023-06-10T00:45:33;5.85;;;3.40;;
22752;SDS011;11543;43.144;24.684;2023-06-10T00:48:00;4.70;;;3.22;;
22752;SDS011;11543;43.144;24.684;2023-06-10T00:50:26;7.00;;;3.30;;
22752;SDS011;11543;43.144;24.684;2023-06-10T00:52:53;6.45;;;3.00;;
22752;SDS011;11543;43.144;24.684;2023-06-10T00:55:19;6.13;;;3.17;;
22752;SDS011;11543;43.144;24.684;2023-06-10T00:57:45;5.28;;;2.85;;
22752;SDS011;11543;43.144;24.684;2023-06-10T01:00:13;6.20;;;3.28;;
22752;SDS011;11543;43.144;24.684;2023-06-10T01:02:40;6.38;;;3.28;;
22752;SDS011;11543;43.144;24.684;2023-06-10T01:05:07;6.22;;;3.08;;
22752;SDS011;11543;43.144;24.684;2023-06-10T01:15:33;7.15;;;3.95;;
22752;SDS011;11543;43.144;24.684;2023-06-10T01:18:00;4.38;;;2.97;;
22752;SDS011;11543;43.144;24.684;2023-06-10T01:20:28;6.75;;;3.22;;
22752;SDS011;11543;43.144;24.684;2023-06-10T01:22:55;5.80;;;3.60;;
22752;SDS011;11543;43.144;24.684;2023-06-10T01:25:23;5.93;;;3.20;;
22752;SDS011;11543;43.144;24.684;2023-06-10T01:28:14;5.28;;;2.75;;
22752;SDS011;11543;43.144;24.684;2023-06-10T01:30:50;7.88;;;3.38;;
22752;SDS011;11543;43.144;24.684;2023-06-10T01:33:59;4.70;;;2.83;;
22752;SDS011;11543;43.144;24.684;2023-06-10T01:36:27;5.28;;;2.97;;
22752;SDS011;11543;43.144;24.684;2023-06-10T01:38:54;6.18;;;3.63;;
22752;SDS011;11543;43.144;24.684;2023-06-10T01:41:21;6.32;;;3.10;;
22752;SDS011;11543;43.144;24.684;2023-06-10T01:43:48;5.03;;;2.95;;
22752;SDS011;11543;43.144;24.684;2023-06-10T01:46:14;7.97;;;3.10;;
22752;SDS011;11543;43.144;24.684;2023-06-10T01:48:44;5.85;;;2.88;;
22752;SDS011;11543;43.144;24.684;2023-06-10T01:51:10;5.05;;;3.20;;
22752;SDS011;11543;43.144;24.684;2023-06-10T01:53:35;7.20;;;2.80;;
22752;SDS011;11543;43.144;24.684;2023-06-10T01:56:01;5.72;;;3.30;;
22752;SDS011;11543;43.144;24.684;2023-06-10T01:58:26;6.35;;;3.38;;
22752;SDS011;11543;43.144;24.684;2023-06-10T02:00:52;6.20;;;3.00;;
22752;SDS011;11543;43.144;24.684;2023-06-10T02:03:17;6.07;;;3.05;;
22752;SDS011;11543;43.144;24.684;2023-06-10T02:05:43;7.07;;;3.30;;
22752;SDS011;11543;43.144;24.684;2023-06-10T02:08:09;5.38;;;3.35;;
22752;SDS011;11543;43.144;24.684;2023-06-10T02:10:34;7.40;;;3.42;;
22752;SDS011;11543;43.144;24.684;2023-06-10T02:13:00;7.10;;;3.15;;
22752;SDS011;11543;43.144;24.684;2023-06-10T02:15:25;5.63;;;3.38;;
22752;SDS011;11543;43.144;24.684;2023-06-10T02:17:51;4.28;;;2.70;;
22752;SDS011;11543;43.144;24.684;2023-06-10T02:20:17;8.90;;;3.35;;
22752;SDS011;11543;43.144;24.684;2023-06-10T02:22:44;5.57;;;3.10;;
22752;SDS011;11543;43.144;24.684;2023-06-10T02:25:09;6.88;;;2.90;;
22752;SDS011;11543;43.144;24.684;2023-06-10T02:27:35;5.07;;;2.80;;
22752;SDS011;11543;43.144;24.684;2023-06-10T02:30:01;6.43;;;2.70;;
22752;SDS011;11543;43.144;24.684;2023-06-10T02:32:26;4.50;;;2.70;;
22752;SDS011;11543;43.144;24.684;2023-06-10T02:34:52;6.25;;;3.28;;
22752;SDS011;11543;43.144;24.684;2023-06-10T02:37:18;5.82;;;3.33;;
22752;SDS011;11543;43.144;24.684;2023-06-10T02:39:44;5.78;;;3.20;;
22752;SDS011;11543;43.144;24.684;2023-06-10T02:42:09;5.88;;;2.95;;
22752;SDS011;11543;43.144;24.684;2023-06-10T02:44:35;6.05;;;2.90;;
22752;SDS011;11543;43.144;24.684;2023-06-10T02:47:01;7.60;;;2.83;;
22752;SDS011;11543;43.144;24.684;2023-06-10T02:49:26;4.53;;;3.30;;
22752;SDS011;11543;43.144;24.684;2023-06-10T02:51:55;4.95;;;3.00;;
22752;SDS011;11543;43.144;24.684;2023-06-10T02:54:22;7.63;;;3.55;;
22752;SDS011;11543;43.144;24.684;2023-06-10T02:56:48;5.32;;;3.05;;
22752;SDS011;11543;43.144;24.684;2023-06-10T02:59:14;7.82;;;3.30;;
22752;SDS011;11543;43.144;24.684;2023-06-10T03:01:39;8.68;;;3.22;;
22752;SDS011;11543;43.144;24.684;2023-06-10T03:04:06;5.65;;;3.28;;
22752;SDS011;11543;43.144;24.684;2023-06-10T03:06:32;7.60;;;3.25;;
22752;SDS011;11543;43.144;24.684;2023-06-10T03:08:59;4.53;;;3.00;;
22752;SDS011;11543;43.144;24.684;2023-06-10T03:11:25;9.30;;;3.47;;
22752;SDS011;11543;43.144;24.684;2023-06-10T03:13:51;4.90;;;3.13;;
22752;SDS011;11543;43.144;24.684;2023-06-10T03:16:18;7.43;;;3.22;;
22752;SDS011;11543;43.144;24.684;2023-06-10T03:18:44;5.65;;;3.38;;
22752;SDS011;11543;43.144;24.684;2023-06-10T03:21:10;6.32;;;3.25;;
22752;SDS011;11543;43.144;24.684;2023-06-10T03:23:35;7.00;;;3.30;;
22752;SDS011;11543;43.144;24.684;2023-06-10T03:26:01;5.25;;;3.60;;
22752;SDS011;11543;43.144;24.684;2023-06-10T03:28:26;10.52;;;3.47;;
22752;SDS011;11543;43.144;24.684;2023-06-10T03:30:52;5.10;;;3.30;;
22752;SDS011;11543;43.144;24.684;2023-06-10T03:33:17;10.30;;;3.72;;
22752;SDS011;11543;43.144;24.684;2023-06-10T03:35:43;11.15;;;3.97;;
22752;SDS011;11543;43.144;24.684;2023-06-10T03:38:08;11.05;;;3.20;;
22752;SDS011;11543;43.144;24.684;2023-06-10T03:40:34;8.13;;;3.55;;
22752;SDS011;11543;43.144;24.684;2023-06-10T03:43:00;5.50;;;3.17;;
22752;SDS011;11543;43.144;24.684;2023-06-10T03:45:25;5.57;;;3.38;;
22752;SDS011;11543;43.144;24.684;2023-06-10T03:47:53;5.15;;;3.38;;
22752;SDS011;11543;43.144;24.684;2023-06-10T03:50:19;6.55;;;3.47;;
22752;SDS011;11543;43.144;24.684;2023-06-10T03:52:44;9.30;;;3.20;;
22752;SDS011;11543;43.144;24.684;2023-06-10T03:55:12;6.10;;;3.33;;
22752;SDS011;11543;43.144;24.684;2023-06-10T03:57:38;6.63;;;3.42;;
22752;SDS011;11543;43.144;24.684;2023-06-10T04:00:04;8.38;;;3.67;;
22752;SDS011;11543;43.144;24.684;2023-06-10T04:02:36;7.20;;;3.28;;
22752;SDS011;11543;43.144;24.684;2023-06-10T04:05:02;7.97;;;4.25;;
22752;SDS011;11543;43.144;24.684;2023-06-10T04:07:27;8.80;;;4.10;;
22752;SDS011;11543;43.144;24.684;2023-06-10T04:09:53;7.05;;;4.13;;
22752;SDS011;11543;43.144;24.684;2023-06-10T04:12:19;5.90;;;3.72;;
22752;SDS011;11543;43.144;24.684;2023-06-10T04:14:44;11.02;;;4.00;;
22752;SDS011;11543;43.144;24.684;2023-06-10T04:17:10;8.30;;;3.78;;
22752;SDS011;11543;43.144;24.684;2023-06-10T04:19:35;5.47;;;3.60;;
22752;SDS011;11543;43.144;24.684;2023-06-10T04:22:01;6.68;;;3.78;;
22752;SDS011;11543;43.144;24.684;2023-06-10T04:24:28;6.97;;;4.18;;
22752;SDS011;11543;43.144;24.684;2023-06-10T04:26:54;7.63;;;4.40;;
22752;SDS011;11543;43.144;24.684;2023-06-10T04:29:19;6.57;;;4.05;;
22752;SDS011;11543;43.144;24.684;2023-06-10T04:31:46;6.95;;;4.13;;
22752;SDS011;11543;43.144;24.684;2023-06-10T04:34:12;9.32;;;4.22;;
22752;SDS011;11543;43.144;24.684;2023-06-10T04:36:37;7.15;;;4.43;;
22752;SDS011;11543;43.144;24.684;2023-06-10T04:39:03;8.05;;;4.22;;
22752;SDS011;11543;43.144;24.684;2023-06-10T04:41:31;8.65;;;4.68;;
22752;SDS011;11543;43.144;24.684;2023-06-10T04:43:57;9.52;;;4.13;;
22752;SDS011;11543;43.144;24.684;2023-06-10T04:46:23;11.15;;;4.57;;
22752;SDS011;11543;43.144;24.684;2023-06-10T05:01:01;10.90;;;4.68;;
22752;SDS011;11543;43.144;24.684;2023-06-10T05:03:27;10.45;;;4.78;;
22752;SDS011;11543;43.144;24.684;2023-06-10T05:05:52;9.20;;;4.75;;
22752;SDS011;11543;43.144;24.684;2023-06-10T05:08:18;8.70;;;4.78;;
22752;SDS011;11543;43.144;24.684;2023-06-10T05:10:43;9.68;;;4.38;;
22752;SDS011;11543;43.144;24.684;2023-06-10T05:13:09;9.93;;;4.38;;
22752;SDS011;11543;43.144;24.684;2023-06-10T05:15:34;8.98;;;4.03;;
22752;SDS011;11543;43.144;24.684;2023-06-10T05:18:00;6.30;;;3.85;;
22752;SDS011;11543;43.144;24.684;2023-06-10T05:20:27;5.55;;;3.42;;
22752;SDS011;11543;43.144;24.684;2023-06-10T05:22:53;6.53;;;4.20;;
22752;SDS011;11543;43.144;24.684;2023-06-10T05:25:20;7.13;;;3.92;;
22752;SDS011;11543;43.144;24.684;2023-06-10T05:27:46;6.35;;;4.10;;
22752;SDS011;11543;43.144;24.684;2023-06-10T05:30:12;6.28;;;4.25;;
22752;SDS011;11543;43.144;24.684;2023-06-10T05:32:37;9.27;;;4.45;;
22752;SDS011;11543;43.144;24.684;2023-06-10T05:35:04;7.95;;;4.22;;
22752;SDS011;11543;43.144;24.684;2023-06-10T05:37:31;5.93;;;3.95;;
22752;SDS011;11543;43.144;24.684;2023-06-10T05:39:58;7.40;;;3.83;;
22752;SDS011;11543;43.144;24.684;2023-06-10T05:42:23;8.80;;;4.03;;
22752;SDS011;11543;43.144;24.684;2023-06-10T05:44:49;10.63;;;4.25;;
22752;SDS011;11543;43.144;24.684;2023-06-10T05:47:16;7.38;;;3.70;;
22752;SDS011;11543;43.144;24.684;2023-06-10T05:49:42;8.18;;;4.20;;
22752;SDS011;11543;43.144;24.684;2023-06-10T05:52:07;9.48;;;4.53;;
22752;SDS011;11543;43.144;24.684;2023-06-10T05:54:33;7.97;;;4.85;;
22752;SDS011;11543;43.144;24.684;2023-06-10T05:56:59;8.27;;;4.72;;
22752;SDS011;11543;43.144;24.684;2023-06-10T05:59:25;10.63;;;4.80;;
22752;SDS011;11543;43.144;24.684;2023-06-10T06:01:50;10.80;;;5.55;;
22752;SDS011;11543;43.144;24.684;2023-06-10T06:04:16;9.13;;;4.88;;
22752;SDS011;11543;43.144;24.684;2023-06-10T06:06:41;7.53;;;5.03;;
22752;SDS011;11543;43.144;24.684;2023-06-10T06:09:07;6.35;;;4.45;;
22752;SDS011;11543;43.144;24.684;2023-06-10T06:11:33;9.50;;;4.90;;
22752;SDS011;11543;43.144;24.684;2023-06-10T06:14:00;8.23;;;4.57;;
22752;SDS011;11543;43.144;24.684;2023-06-10T06:16:26;8.07;;;4.57;;
22752;SDS011;11543;43.144;24.684;2023-06-10T06:18:51;7.78;;;4.72;;
22752;SDS011;11543;43.144;24.684;2023-06-10T06:21:17;9.23;;;4.60;;
22752;SDS011;11543;43.144;24.684;2023-06-10T06:23:42;5.55;;;4.32;;
22752;SDS011;11543;43.144;24.684;2023-06-10T06:26:08;9.30;;;4.72;;
22752;SDS011;11543;43.144;24.684;2023-06-10T06:28:33;6.65;;;4.13;;
22752;SDS011;11543;43.144;24.684;2023-06-10T06:30:59;7.00;;;4.40;;
22752;SDS011;11543;43.144;24.684;2023-06-10T06:33:25;8.90;;;4.88;;
22752;SDS011;11543;43.144;24.684;2023-06-10T06:35:51;13.00;;;4.40;;
22752;SDS011;11543;43.144;24.684;2023-06-10T06:38:17;9.02;;;4.55;;
22752;SDS011;11543;43.144;24.684;2023-06-10T06:40:44;8.05;;;4.47;;
22752;SDS011;11543;43.144;24.684;2023-06-10T06:43:09;7.63;;;4.50;;
22752;SDS011;11543;43.144;24.684;2023-06-10T06:45:35;7.20;;;4.70;;
22752;SDS011;11543;43.144;24.684;2023-06-10T06:48:00;7.47;;;4.40;;
22752;SDS011;11543;43.144;24.684;2023-06-10T06:50:26;7.20;;;3.90;;
22752;SDS011;11543;43.144;24.684;2023-06-10T06:52:51;7.18;;;4.03;;
22752;SDS011;11543;43.144;24.684;2023-06-10T06:55:17;8.90;;;4.30;;
22752;SDS011;11543;43.144;24.684;2023-06-10T06:57:42;10.40;;;4.03;;
22752;SDS011;11543;43.144;24.684;2023-06-10T07:00:08;7.32;;;4.30;;
22752;SDS011;11543;43.144;24.684;2023-06-10T07:02:34;9.55;;;3.80;;
22752;SDS011;11543;43.144;24.684;2023-06-10T07:05:00;8.10;;;4.30;;
22752;SDS011;11543;43.144;24.684;2023-06-10T07:07:26;6.78;;;3.95;;
22752;SDS011;11543;43.144;24.684;2023-06-10T07:09:52;8.13;;;4.10;;
22752;SDS011;11543;43.144;24.684;2023-06-10T07:12:17;6.22;;;3.70;;
22752;SDS011;11543;43.144;24.684;2023-06-10T07:14:43;5.80;;;4.05;;
22752;SDS011;11543;43.144;24.684;2023-06-10T07:17:09;5.78;;;3.95;;
22752;SDS011;11543;43.144;24.684;2023-06-10T07:19:35;8.30;;;3.83;;
22752;SDS011;11543;43.144;24.684;2023-06-10T07:22:00;7.32;;;3.97;;
22752;SDS011;11543;43.144;24.684;2023-06-10T07:24:26;7.18;;;3.70;;
22752;SDS011;11543;43.144;24.684;2023-06-10T07:26:52;15.23;;;8.05;;
22752;SDS011;11543;43.144;24.684;2023-06-10T07:29:18;6.18;;;3.85;;
22752;SDS011;11543;43.144;24.684;2023-06-10T07:34:19;7.60;;;3.28;;
22752;SDS011;11543;43.144;24.684;2023-06-10T07:36:45;5.25;;;3.25;;
22752;SDS011;11543;43.144;24.684;2023-06-10T07:39:10;8.48;;;3.22;;
22752;SDS011;11543;43.144;24.684;2023-06-10T07:41:36;6.75;;;3.03;;
22752;SDS011;11543;43.144;24.684;2023-06-10T07:44:01;5.47;;;3.05;;
22752;SDS011;11543;43.144;24.684;2023-06-10T07:46:27;6.05;;;3.28;;
22752;SDS011;11543;43.144;24.684;2023-06-10T07:48:53;7.40;;;3.40;;
22752;SDS011;11543;43.144;24.684;2023-06-10T07:51:19;8.30;;;2.90;;
22752;SDS011;11543;43.144;24.684;2023-06-10T07:53:44;5.72;;;2.58;;
22752;SDS011;11543;43.144;24.684;2023-06-10T07:56:10;5.78;;;3.05;;
22752;SDS011;11543;43.144;24.684;2023-06-10T07:58:36;5.13;;;3.10;;
22752;SDS011;11543;43.144;24.684;2023-06-10T08:01:02;6.72;;;3.13;;
22752;SDS011;11543;43.144;24.684;2023-06-10T08:03:27;6.03;;;3.00;;
22752;SDS011;11543;43.144;24.684;2023-06-10T08:05:53;4.10;;;3.22;;
22752;SDS011;11543;43.144;24.684;2023-06-10T08:08:18;5.53;;;2.97;;
22752;SDS011;11543;43.144;24.684;2023-06-10T08:10:44;4.70;;;3.03;;
22752;SDS011;11543;43.144;24.684;2023-06-10T08:13:10;6.20;;;3.25;;
22752;SDS011;11543;43.144;24.684;2023-06-10T08:15:35;6.32;;;3.38;;
22752;SDS011;11543;43.144;24.684;2023-06-10T08:18:01;5.50;;;2.80;;
22752;SDS011;11543;43.144;24.684;2023-06-10T08:20:26;5.53;;;3.30;;
22752;SDS011;11543;43.144;24.684;2023-06-10T08:22:52;4.50;;;2.80;;
22752;SDS011;11543;43.144;24.684;2023-06-10T08:25:17;7.47;;;3.00;;
22752;SDS011;11543;43.144;24.684;2023-06-10T08:27:43;9.38;;;3.15;;
22752;SDS011;11543;43.144;24.684;2023-06-10T08:30:09;6.18;;;2.88;;
22752;SDS011;11543;43.144;24.684;2023-06-10T08:32:35;4.57;;;2.70;;
22752;SDS011;11543;43.144;24.684;2023-06-10T08:35:02;4.57;;;2.67;;
22752;SDS011;11543;43.144;24.684;2023-06-10T08:37:28;6.57;;;2.85;;
22752;SDS011;11543;43.144;24.684;2023-06-10T08:39:53;7.85;;;2.60;;
22752;SDS011;11543;43.144;24.684;2023-06-10T08:42:23;8.15;;;2.50;;
22752;SDS011;11543;43.144;24.684;2023-06-10T08:44:53;6.05;;;3.00;;
22752;SDS011;11543;43.144;24.684;2023-06-10T08:47:21;4.75;;;2.60;;
22752;SDS011;11543;43.144;24.684;2023-06-10T08:49:48;7.55;;;2.88;;
22752;SDS011;11543;43.144;24.684;2023-06-10T08:52:15;6.30;;;3.00;;
22752;SDS011;11543;43.144;24.684;2023-06-10T09:06:36;4.10;;;2.75;;
22752;SDS011;11543;43.144;24.684;2023-06-10T09:09:05;4.93;;;2.97;;
22752;SDS011;11543;43.144;24.684;2023-06-10T09:11:31;4.43;;;2.80;;
22752;SDS011;11543;43.144;24.684;2023-06-10T09:13:57;4.57;;;2.75;;
22752;SDS011;11543;43.144;24.684;2023-06-10T09:16:23;5.65;;;3.10;;
22752;SDS011;11543;43.144;24.684;2023-06-10T09:18:50;5.30;;;2.65;;
22752;SDS011;11543;43.144;24.684;2023-06-10T09:21:21;6.13;;;2.58;;
22752;SDS011;11543;43.144;24.684;2023-06-10T09:23:50;3.63;;;2.78;;
22752;SDS011;11543;43.144;24.684;2023-06-10T09:26:15;6.97;;;2.90;;
22752;SDS011;11543;43.144;24.684;2023-06-10T09:28:43;6.32;;;2.42;;
22752;SDS011;11543;43.144;24.684;2023-06-10T09:31:11;4.32;;;2.55;;
22752;SDS011;11543;43.144;24.684;2023-06-10T09:33:37;3.33;;;2.40;;
22752;SDS011;11543;43.144;24.684;2023-06-10T09:36:06;6.43;;;2.30;;
22752;SDS011;11543;43.144;24.684;2023-06-10T09:38:33;4.30;;;2.55;;
22752;SDS011;11543;43.144;24.684;2023-06-10T09:40:59;4.72;;;2.50;;
22752;SDS011;11543;43.144;24.684;2023-06-10T09:43:43;4.20;;;2.47;;
22752;SDS011;11543;43.144;24.684;2023-06-10T09:46:23;6.57;;;2.40;;
22752;SDS011;11543;43.144;24.684;2023-06-10T09:48:59;6.50;;;2.53;;
22752;SDS011;11543;43.144;24.684;2023-06-10T09:51:25;4.53;;;2.47;;
22752;SDS011;11543;43.144;24.684;2023-06-10T09:53:51;6.53;;;2.40;;
22752;SDS011;11543;43.144;24.684;2023-06-10T09:56:17;5.25;;;2.47;;
22752;SDS011;11543;43.144;24.684;2023-06-10T09:58:44;3.25;;;2.13;;
22752;SDS011;11543;43.144;24.684;2023-06-10T10:01:12;5.90;;;2.42;;
22752;SDS011;11543;43.144;24.684;2023-06-10T10:03:51;3.65;;;2.30;;
22752;SDS011;11543;43.144;24.684;2023-06-10T10:06:17;3.30;;;2.25;;
22752;SDS011;11543;43.144;24.684;2023-06-10T10:08:45;3.42;;;2.35;;
22752;SDS011;11543;43.144;24.684;2023-06-10T10:11:12;4.25;;;2.35;;
22752;SDS011;11543;43.144;24.684;2023-06-10T10:13:45;4.40;;;2.47;;
22752;SDS011;11543;43.144;24.684;2023-06-10T10:16:51;4.72;;;2.60;;
22752;SDS011;11543;43.144;24.684;2023-06-10T10:36:06;5.57;;;2.30;;
22752;SDS011;11543;43.144;24.684;2023-06-10T10:39:01;7.15;;;2.45;;
22752;SDS011;11543;43.144;24.684;2023-06-10T12:07:41;4.65;;;2.30;;
22752;SDS011;11543;43.144;24.684;2023-06-10T12:10:09;5.53;;;2.35;;
22752;SDS011;11543;43.144;24.684;2023-06-10T12:12:35;8.25;;;2.45;;
22752;SDS011;11543;43.144;24.684;2023-06-10T12:15:02;5.57;;;2.50;;
22752;SDS011;11543;43.144;24.684;2023-06-10T12:19:57;5.43;;;2.65;;
22752;SDS011;11543;43.144;24.684;2023-06-10T12:22:24;2.67;;;2.30;;
22752;SDS011;11543;43.144;24.684;2023-06-10T12:24:58;5.22;;;2.40;;
22752;SDS011;11543;43.144;24.684;2023-06-10T12:27:25;4.80;;;2.30;;
22752;SDS011;11543;43.144;24.684;2023-06-10T12:29:51;4.07;;;2.40;;
22752;SDS011;11543;43.144;24.684;2023-06-10T12:32:20;5.20;;;2.10;;
22752;SDS011;11543;43.144;24.684;2023-06-10T12:35:03;4.20;;;2.17;;
22752;SDS011;11543;43.144;24.684;2023-06-10T12:37:32;3.13;;;2.30;;
22752;SDS011;11543;43.144;24.684;2023-06-10T12:40:05;5.85;;;2.40;;
22752;SDS011;11543;43.144;24.684;2023-06-10T12:42:35;5.50;;;2.20;;
22752;SDS011;11543;43.144;24.684;2023-06-10T12:45:02;3.55;;;2.17;;
22752;SDS011;11543;43.144;24.684;2023-06-10T12:47:35;3.95;;;2.40;;
22752;SDS011;11543;43.144;24.684;2023-06-10T12:50:04;5.30;;;2.47;;
22752;SDS011;11543;43.144;24.684;2023-06-10T12:52:31;5.32;;;2.22;;
22752;SDS011;11543;43.144;24.684;2023-06-10T12:54:58;4.78;;;2.55;;
22752;SDS011;11543;43.144;24.684;2023-06-10T12:57:29;4.15;;;2.30;;
22752;SDS011;11543;43.144;24.684;2023-06-10T12:59:56;13.57;;;2.50;;
22752;SDS011;11543;43.144;24.684;2023-06-10T13:02:28;5.45;;;2.53;;
22752;SDS011;11543;43.144;24.684;2023-06-10T13:04:56;14.65;;;2.88;;
22752;SDS011;11543;43.144;24.684;2023-06-10T13:07:22;13.68;;;2.90;;
22752;SDS011;11543;43.144;24.684;2023-06-10T13:09:48;5.45;;;2.22;;
22752;SDS011;11543;43.144;24.684;2023-06-10T13:12:14;9.07;;;2.47;;
22752;SDS011;11543;43.144;24.684;2023-06-10T13:14:39;11.30;;;3.22;;
22752;SDS011;11543;43.144;24.684;2023-06-10T13:17:08;4.28;;;2.55;;
22752;SDS011;11543;43.144;24.684;2023-06-10T13:19:33;6.50;;;2.42;;
22752;SDS011;11543;43.144;24.684;2023-06-10T13:21:59;7.15;;;2.55;;
22752;SDS011;11543;43.144;24.684;2023-06-10T13:24:24;6.30;;;2.22;;
22752;SDS011;11543;43.144;24.684;2023-06-10T13:26:51;6.35;;;2.60;;
22752;SDS011;11543;43.144;24.684;2023-06-10T13:29:17;7.43;;;2.40;;
22752;SDS011;11543;43.144;24.684;2023-06-10T13:31:42;5.20;;;2.30;;
22752;SDS011;11543;43.144;24.684;2023-06-10T13:34:08;3.78;;;2.33;;
22752;SDS011;11543;43.144;24.684;2023-06-10T13:36:48;3.92;;;2.50;;
22752;SDS011;11543;43.144;24.684;2023-06-10T13:39:52;6.47;;;2.35;;
22752;SDS011;11543;43.144;24.684;2023-06-10T13:42:18;4.97;;;2.67;;
22752;SDS011;11543;43.144;24.684;2023-06-10T13:44:44;6.18;;;2.70;;
22752;SDS011;11543;43.144;24.684;2023-06-10T13:47:12;5.97;;;2.30;;
22752;SDS011;11543;43.144;24.684;2023-06-10T13:49:38;4.45;;;2.38;;
22752;SDS011;11543;43.144;24.684;2023-06-10T13:52:20;4.68;;;2.20;;
22752;SDS011;11543;43.144;24.684;2023-06-10T13:54:45;5.95;;;2.20;;
22752;SDS011;11543;43.144;24.684;2023-06-10T13:57:11;4.43;;;2.33;;
22752;SDS011;11543;43.144;24.684;2023-06-10T14:03:07;6.38;;;2.50;;
22752;SDS011;11543;43.144;24.684;2023-06-10T14:05:35;8.00;;;2.92;;
22752;SDS011;11543;43.144;24.684;2023-06-10T14:08:01;7.35;;;3.10;;
22752;SDS011;11543;43.144;24.684;2023-06-10T14:10:26;7.35;;;3.10;;
22752;SDS011;11543;43.144;24.684;2023-06-10T14:12:52;6.57;;;2.85;;
22752;SDS011;11543;43.144;24.684;2023-06-10T14:15:18;7.35;;;3.20;;
22752;SDS011;11543;43.144;24.684;2023-06-10T14:17:44;6.88;;;2.92;;
22752;SDS011;11543;43.144;24.684;2023-06-10T14:20:10;5.72;;;2.95;;
22752;SDS011;11543;43.144;24.684;2023-06-10T14:22:36;3.60;;;2.80;;
22752;SDS011;11543;43.144;24.684;2023-06-10T14:25:02;4.63;;;2.55;;
22752;SDS011;11543;43.144;24.684;2023-06-10T14:27:28;6.05;;;2.75;;
22752;SDS011;11543;43.144;24.684;2023-06-10T14:29:53;6.75;;;2.92;;
22752;SDS011;11543;43.144;24.684;2023-06-10T14:32:20;5.70;;;2.95;;
22752;SDS011;11543;43.144;24.684;2023-06-10T14:34:47;4.32;;;2.42;;
22752;SDS011;11543;43.144;24.684;2023-06-10T14:37:13;5.38;;;2.75;;
22752;SDS011;11543;43.144;24.684;2023-06-10T14:46:16;4.13;;;2.90;;
22752;SDS011;11543;43.144;24.684;2023-06-10T14:48:51;6.13;;;3.05;;
22752;SDS011;11543;43.144;24.684;2023-06-10T14:51:17;4.43;;;3.00;;
22752;SDS011;11543;43.144;24.684;2023-06-10T14:53:43;5.28;;;2.95;;
22752;SDS011;11543;43.144;24.684;2023-06-10T14:56:08;5.35;;;2.85;;
22752;SDS011;11543;43.144;24.684;2023-06-10T14:58:34;6.97;;;2.95;;
22752;SDS011;11543;43.144;24.684;2023-06-10T15:01:00;5.88;;;3.17;;
22752;SDS011;11543;43.144;24.684;2023-06-10T15:03:25;4.22;;;2.78;;
22752;SDS011;11543;43.144;24.684;2023-06-10T15:05:51;6.90;;;2.70;;
22752;SDS011;11543;43.144;24.684;2023-06-10T15:08:16;7.50;;;2.75;;
22752;SDS011;11543;43.144;24.684;2023-06-10T15:10:42;5.60;;;2.60;;
22752;SDS011;11543;43.144;24.684;2023-06-10T15:13:07;4.30;;;2.50;;
22752;SDS011;11543;43.144;24.684;2023-06-10T15:15:33;5.45;;;2.60;;
22752;SDS011;11543;43.144;24.684;2023-06-10T15:17:58;5.55;;;2.90;;
22752;SDS011;11543;43.144;24.684;2023-06-10T15:20:24;6.03;;;2.42;;
22752;SDS011;11543;43.144;24.684;2023-06-10T15:22:50;6.22;;;2.75;;
22752;SDS011;11543;43.144;24.684;2023-06-10T15:25:15;6.95;;;2.70;;
22752;SDS011;11543;43.144;24.684;2023-06-10T15:27:41;5.38;;;2.80;;
22752;SDS011;11543;43.144;24.684;2023-06-10T15:30:07;5.45;;;2.50;;
22752;SDS011;11543;43.144;24.684;2023-06-10T15:32:33;5.13;;;2.63;;
22752;SDS011;11543;43.144;24.684;2023-06-10T15:34:58;4.65;;;2.90;;
22752;SDS011;11543;43.144;24.684;2023-06-10T15:37:24;4.30;;;2.60;;
22752;SDS011;11543;43.144;24.684;2023-06-10T15:39:50;5.13;;;2.72;;
22752;SDS011;11543;43.144;24.684;2023-06-10T15:42:15;8.57;;;3.20;;
22752;SDS011;11543;43.144;24.684;2023-06-10T15:44:41;5.85;;;2.75;;
22752;SDS011;11543;43.144;24.684;2023-06-10T15:47:06;7.57;;;3.28;;
22752;SDS011;11543;43.144;24.684;2023-06-10T15:49:32;4.28;;;3.13;;
22752;SDS011;11543;43.144;24.684;2023-06-10T15:51:58;6.50;;;3.13;;
22752;SDS011;11543;43.144;24.684;2023-06-10T15:54:23;7.35;;;3.05;;
22752;SDS011;11543;43.144;24.684;2023-06-10T15:56:49;5.57;;;2.70;;
22752;SDS011;11543;43.144;24.684;2023-06-10T15:59:15;5.18;;;3.00;;
22752;SDS011;11543;43.144;24.684;2023-06-10T16:01:40;4.72;;;2.90;;
22752;SDS011;11543;43.144;24.684;2023-06-10T16:04:06;8.65;;;2.85;;
22752;SDS011;11543;43.144;24.684;2023-06-10T16:06:31;5.50;;;2.90;;
22752;SDS011;11543;43.144;24.684;2023-06-10T16:08:59;4.07;;;2.90;;
22752;SDS011;11543;43.144;24.684;2023-06-10T16:11:24;4.78;;;2.72;;
22752;SDS011;11543;43.144;24.684;2023-06-10T16:13:51;8.70;;;2.92;;
22752;SDS011;11543;43.144;24.684;2023-06-10T16:16:16;9.60;;;3.35;;
22752;SDS011;11543;43.144;24.684;2023-06-10T16:18:42;7.75;;;2.80;;
22752;SDS011;11543;43.144;24.684;2023-06-10T16:21:07;5.60;;;2.95;;
22752;SDS011;11543;43.144;24.684;2023-06-10T16:26:46;6.53;;;3.38;;
22752;SDS011;11543;43.144;24.684;2023-06-10T16:29:15;8.13;;;3.88;;
22752;SDS011;11543;43.144;24.684;2023-06-10T16:31:44;8.65;;;3.10;;
22752;SDS011;11543;43.144;24.684;2023-06-10T16:34:13;4.65;;;3.30;;
22752;SDS011;11543;43.144;24.684;2023-06-10T16:37:21;5.00;;;2.90;;
22752;SDS011;11543;43.144;24.684;2023-06-10T16:39:30;8.48;;;2.88;;
22752;SDS011;11543;43.144;24.684;2023-06-10T16:42:39;6.13;;;3.13;;
22752;SDS011;11543;43.144;24.684;2023-06-10T16:48:02;5.95;;;2.50;;
22752;SDS011;11543;43.144;24.684;2023-06-10T16:51:01;4.50;;;2.88;;
22752;SDS011;11543;43.144;24.684;2023-06-10T21:05:15;6.85;;;3.80;;
22752;SDS011;11543;43.144;24.684;2023-06-10T21:07:41;6.75;;;3.53;;
22752;SDS011;11543;43.144;24.684;2023-06-10T21:10:09;6.70;;;4.15;;
22752;SDS011;11543;43.144;24.684;2023-06-10T21:12:35;5.97;;;3.88;;
22752;SDS011;11543;43.144;24.684;2023-06-10T21:15:01;6.97;;;3.83;;
22752;SDS011;11543;43.144;24.684;2023-06-10T21:17:27;9.25;;;3.67;;
22752;SDS011;11543;43.144;24.684;2023-06-10T21:19:52;8.93;;;4.00;;
22752;SDS011;11543;43.144;24.684;2023-06-10T21:22:18;6.28;;;4.22;;